Little Elm, Texas
Current Conditions -  °F | °C
As of 5:47 AM on Friday 19 Dec 2014 (Local Time) from KADS Reporting Station
Light Rain Light Rain  
Wind Chill: 41°   Ceiling: 600
Heat Index: 45°   Visibility: 5mi
Dew Point: 43°   Wind: 6mph
Humidity: 93%   Direction: 10°N
Pressure: 30.17"   Gusts: NA
Location:  33.16°N, 96.93°W
Report Text: KADS 191147Z 01005KT 5SM -RA BR OVC006 07/06 A3017
Loading
Personal Weather Stations






























Interactive Weather Map New forecast layout! Learn more

10-Day Weather Forecast

Advertisements
Track Severe Weather on mobile